New Albany, Kansas
Current Conditions -  °F | °C
As of 3:52 PM on Friday 28 Nov 2014 (Local Time) from KCNU Reporting Station
Clear Clear  
Wind Chill: 62°   Ceiling: Unl
Heat Index: 62°   Visibility: 10mi
Dew Point: 35°   Wind: 20mph
Humidity: 37%   Direction: 200°SSW
Pressure: 29.84"   Gusts: 28mph
Location:  37.57°N, 95.94°W
Report Text: KCNU 282152Z AUTO 20017G24KT 10SM CLR 17/02 A2984 RMK AO2 SLP105 T01670017
Loading
Personal Weather Stations






























Interactive Weather Map New forecast layout! Learn more

10-Day Weather Forecast

Advertisements
Track Severe Weather on mobile